Time;durP1;ratioP1;P1;durP2;ratioP2;P2;SDS_P1;SDS_P2;PMS_P1;PMS_P2;Temp;Humidity;BMP_temperature;BMP_pressure;BME280_temperature;BME280_humidity;BME280_pressure;Samples;Min_cycle;Max_cycle;Signal;HPM_P1;HPM_P2
2022/03/09 00:01:28;;;;;;;37.55;25.45;;;8.30;96.20;;;;;;4951996;29;20054;-68
2022/03/09 00:03:55;;;;;;;40.40;27.05;;;8.30;96.60;;;;;;4936891;29;20134;-68
2022/03/09 00:06:23;;;;;;;34.03;24.02;;;8.40;97.30;;;;;;4912272;29;20070;-69
2022/03/09 00:08:50;;;;;;;33.40;22.95;;;8.40;98.20;;;;;;4944971;29;20065;-68
2022/03/09 00:11:17;;;;;;;37.08;25.73;;;8.50;98.60;;;;;;4952950;29;20051;-68
2022/03/09 00:13:44;;;;;;;31.65;24.67;;;8.50;99.00;;;;;;4953224;28;20050;-68
2022/03/09 00:16:11;;;;;;;35.80;23.80;;;8.50;99.10;;;;;;4935806;29;20043;-68
2022/03/09 00:18:39;;;;;;;34.55;23.40;;;8.50;99.00;;;;;;4953040;29;20055;-68
2022/03/09 00:21:06;;;;;;;38.97;23.98;;;8.60;99.30;;;;;;4919886;28;20423;-68
2022/03/09 00:23:33;;;;;;;34.63;25.20;;;8.60;99.40;;;;;;4952265;28;20055;-68
2022/03/09 00:26:00;;;;;;;41.30;28.23;;;8.60;99.30;;;;;;4954105;28;20047;-68
2022/03/09 00:28:30;;;;;;;32.28;23.33;;;8.60;99.40;;;;;;4936671;28;20130;-68
2022/03/09 00:31:01;;;;;;;33.90;24.48;;;8.70;99.60;;;;;;4950892;29;20134;-68
2022/03/09 00:33:49;;;;;;;35.38;23.65;;;8.70;99.60;;;;;;4950728;29;20071;-68
2022/03/09 00:36:16;;;;;;;35.67;23.65;;;8.70;99.90;;;;;;4952596;29;20061;-68
2022/03/09 00:38:44;;;;;;;33.88;25.17;;;8.70;99.90;;;;;;4954154;29;20050;-69
2022/03/09 00:41:11;;;;;;;39.38;25.45;;;8.70;99.90;;;;;;4952351;28;20070;-69
2022/03/09 00:43:38;;;;;;;36.80;24.25;;;8.70;99.90;;;;;;4953659;28;20246;-68
2022/03/09 00:46:05;;;;;;;37.38;24.25;;;8.70;99.90;;;;;;4952067;29;20563;-68
2022/03/09 00:48:36;;;;;;;33.85;23.30;;;8.70;99.90;;;;;;4935379;29;20061;-68
2022/03/09 00:51:04;;;;;;;37.38;22.75;;;8.80;99.90;;;;;;4951181;28;20054;-68
2022/03/09 00:53:31;;;;;;;40.03;25.77;;;8.80;99.90;;;;;;4951651;29;20110;-68
2022/03/09 00:55:57;;;;;;;39.22;24.98;;;8.80;99.90;;;;;;4952822;28;20059;-68
2022/03/09 00:58:25;;;;;;;31.02;21.60;;;8.80;99.90;;;;;;4952505;28;20403;-68
2022/03/09 01:00:52;;;;;;;31.65;21.88;;;8.80;99.90;;;;;;4952727;28;20047;-68
2022/03/09 01:03:19;;;;;;;34.55;22.42;;;8.80;99.90;;;;;;4951523;29;20051;-68
2022/03/09 01:05:46;;;;;;;36.15;22.15;;;8.80;99.90;;;;;;4951638;29;20087;-68
2022/03/09 01:08:13;;;;;;;30.85;22.67;;;8.80;99.90;;;;;;4952938;28;20051;-68
2022/03/09 01:10:41;;;;;;;29.58;22.08;;;8.80;99.90;;;;;;4915272;29;20119;-69
2022/03/09 01:13:08;;;;;;;35.03;23.15;;;8.90;99.90;;;;;;4930164;29;20054;-69
2022/03/09 01:15:35;;;;;;;34.67;23.10;;;8.90;99.90;;;;;;4951844;29;20051;-69
2022/03/09 01:18:02;;;;;;;39.10;25.38;;;8.90;99.90;;;;;;4919204;29;20039;-68
2022/03/09 01:20:29;;;;;;;33.15;23.80;;;8.90;99.90;;;;;;4934384;29;20396;-68
2022/03/09 01:22:56;;;;;;;36.55;24.23;;;8.90;99.90;;;;;;4950848;28;20779;-68
2022/03/09 01:25:23;;;;;;;36.80;24.20;;;8.90;99.90;;;;;;4935582;28;20040;-69
2022/03/09 01:27:50;;;;;;;34.25;23.58;;;8.90;99.90;;;;;;4952361;28;20538;-68
2022/03/09 01:30:17;;;;;;;32.40;24.08;;;8.90;99.90;;;;;;4949555;28;20051;-68
2022/03/09 01:32:44;;;;;;;35.72;24.05;;;8.90;99.90;;;;;;4950946;29;20054;-68
2022/03/09 01:35:11;;;;;;;33.38;24.00;;;8.90;99.90;;;;;;4950465;29;20059;-68
2022/03/09 01:37:38;;;;;;;34.53;24.15;;;8.90;99.90;;;;;;4950147;29;20587;-68
2022/03/09 01:40:06;;;;;;;43.45;24.25;;;8.90;99.90;;;;;;4949447;29;20057;-68
2022/03/09 01:42:33;;;;;;;34.85;24.73;;;8.90;99.90;;;;;;4950794;29;20406;-68
2022/03/09 01:45:04;;;;;;;35.17;25.13;;;8.90;99.90;;;;;;4951890;28;20051;-68
2022/03/09 01:47:32;;;;;;;34.80;23.98;;;9.00;99.90;;;;;;4950895;29;20047;-68
2022/03/09 01:49:59;;;;;;;37.78;24.60;;;9.00;99.90;;;;;;4934902;29;20053;-68
2022/03/09 01:52:26;;;;;;;37.97;24.80;;;9.00;99.90;;;;;;4950691;28;20054;-68
2022/03/09 01:54:54;;;;;;;36.70;23.40;;;9.00;99.90;;;;;;4937128;29;20137;-69
2022/03/09 01:57:21;;;;;;;33.90;24.00;;;9.00;99.90;;;;;;4943802;29;20047;-68
2022/03/09 01:59:51;;;;;;;32.97;22.05;;;9.00;99.90;;;;;;4954827;28;20048;-68
2022/03/09 02:02:18;;;;;;;32.33;22.20;;;9.00;99.90;;;;;;4953925;29;20239;-68
2022/03/09 02:04:46;;;;;;;34.72;23.00;;;9.10;99.90;;;;;;4943910;29;20075;-68
2022/03/09 02:07:13;;;;;;;33.13;21.52;;;9.10;99.90;;;;;;4954830;29;20051;-68
2022/03/09 02:09:46;;;;;;;37.15;23.83;;;9.10;99.90;;;;;;4954152;29;20134;-68
2022/03/09 02:12:17;;;;;;;29.63;20.38;;;9.10;99.90;;;;;;4939176;29;20054;-68
2022/03/09 02:14:49;;;;;;;28.73;21.25;;;9.20;99.90;;;;;;4938417;29;20047;-68
2022/03/09 02:17:21;;;;;;;34.95;24.02;;;9.20;99.90;;;;;;4937363;29;20051;-68
2022/03/09 02:19:49;;;;;;;31.40;22.20;;;9.20;99.90;;;;;;4922853;29;20079;-68
2022/03/09 02:22:19;;;;;;;28.98;19.88;;;9.20;99.90;;;;;;4937305;29;20062;-68
2022/03/09 02:24:50;;;;;;;34.60;20.98;;;9.20;99.90;;;;;;4952969;29;20059;-68
2022/03/09 02:27:17;;;;;;;26.13;19.90;;;9.30;99.90;;;;;;4938622;29;20142;-68
2022/03/09 02:29:44;;;;;;;29.88;20.63;;;9.30;99.90;;;;;;4954288;28;20134;-68
2022/03/09 02:32:12;;;;;;;30.77;20.65;;;9.30;99.90;;;;;;4953534;29;20058;-68
2022/03/09 02:34:39;;;;;;;27.48;19.83;;;9.30;99.90;;;;;;4954118;29;20059;-68
2022/03/09 02:37:06;;;;;;;25.63;19.63;;;9.30;99.90;;;;;;4938222;29;20039;-68
2022/03/09 02:39:33;;;;;;;28.70;19.77;;;9.30;99.90;;;;;;4949907;29;20056;-68
2022/03/09 02:42:00;;;;;;;34.03;20.35;;;9.40;99.90;;;;;;4946695;29;20059;-68
2022/03/09 02:44:27;;;;;;;25.88;17.90;;;9.40;99.90;;;;;;4954723;28;20202;-68
2022/03/09 02:46:54;;;;;;;21.52;17.23;;;9.40;99.90;;;;;;4953441;28;20117;-68
2022/03/09 02:49:21;;;;;;;25.67;17.15;;;9.40;99.90;;;;;;4910679;29;20142;-68
2022/03/09 02:51:49;;;;;;;26.33;18.80;;;9.40;99.90;;;;;;4951265;28;20543;-68
2022/03/09 02:54:16;;;;;;;22.25;17.33;;;9.40;99.90;;;;;;4937012;29;20146;-68
2022/03/09 02:56:44;;;;;;;22.02;16.00;;;9.40;99.90;;;;;;4957720;28;20089;-69
2022/03/09 02:59:11;;;;;;;23.27;14.88;;;9.40;99.90;;;;;;4953271;28;20043;-68
2022/03/09 03:01:38;;;;;;;20.90;15.35;;;9.40;99.90;;;;;;4954281;29;20055;-68
2022/03/09 03:04:05;;;;;;;21.55;16.00;;;9.40;99.90;;;;;;4953988;29;20213;-68
2022/03/09 03:06:32;;;;;;;21.42;15.98;;;9.40;99.90;;;;;;4955221;28;20058;-68
2022/03/09 03:09:00;;;;;;;21.02;15.80;;;9.40;99.90;;;;;;4953812;29;20062;-68
2022/03/09 03:11:26;;;;;;;21.05;14.82;;;9.40;99.90;;;;;;4953963;29;20152;-70
2022/03/09 03:13:53;;;;;;;19.60;14.45;;;9.50;99.90;;;;;;4953672;29;20051;-68
2022/03/09 03:16:20;;;;;;;24.65;14.48;;;9.50;99.90;;;;;;4937736;29;20050;-68
2022/03/09 03:18:47;;;;;;;20.48;15.00;;;9.50;99.90;;;;;;4954126;29;20054;-68
2022/03/09 03:21:14;;;;;;;20.70;14.70;;;9.50;99.90;;;;;;4954818;28;20054;-68
2022/03/09 03:23:42;;;;;;;19.80;15.27;;;9.50;99.90;;;;;;4955134;28;20079;-68
2022/03/09 03:26:09;;;;;;;20.02;15.10;;;9.50;99.90;;;;;;4960249;28;20449;-68
2022/03/09 03:28:36;;;;;;;21.13;15.02;;;9.50;99.90;;;;;;4954139;28;20562;-68
2022/03/09 03:31:04;;;;;;;21.70;15.82;;;9.50;99.90;;;;;;4937436;29;20051;-68
2022/03/09 03:33:31;;;;;;;18.95;13.43;;;9.50;99.90;;;;;;4966779;28;20401;-68
2022/03/09 03:35:58;;;;;;;17.13;13.82;;;9.50;99.90;;;;;;4937348;29;20061;-68
2022/03/09 03:38:26;;;;;;;20.13;14.02;;;9.50;99.90;;;;;;4937613;29;20213;-68
2022/03/09 03:40:53;;;;;;;25.02;14.38;;;9.40;99.90;;;;;;4953039;29;20404;-68
2022/03/09 03:43:20;;;;;;;17.58;13.85;;;9.40;99.90;;;;;;4953573;29;20130;-68
2022/03/09 03:45:47;;;;;;;17.98;13.40;;;9.40;99.90;;;;;;4953040;29;20480;-68
2022/03/09 03:48:14;;;;;;;17.73;12.25;;;9.50;99.90;;;;;;4955117;29;20106;-68
2022/03/09 03:50:42;;;;;;;19.52;13.10;;;9.50;99.90;;;;;;4954880;29;20078;-68
2022/03/09 03:53:08;;;;;;;22.42;13.10;;;9.40;99.90;;;;;;4953054;28;20043;-68
2022/03/09 03:55:35;;;;;;;14.52;11.55;;;9.50;99.90;;;;;;4940967;28;20047;-68
2022/03/09 03:58:03;;;;;;;20.48;12.02;;;9.50;99.90;;;;;;4961528;28;20043;-68
2022/03/09 04:00:30;;;;;;;18.33;11.77;;;9.50;99.90;;;;;;4955046;28;20058;-69
2022/03/09 04:03:00;;;;;;;18.00;11.82;;;9.50;99.90;;;;;;4935304;29;20062;-68
2022/03/09 04:05:28;;;;;;;15.02;11.50;;;9.50;99.90;;;;;;4953246;29;20377;-68
2022/03/09 04:07:56;;;;;;;19.08;12.05;;;9.50;99.90;;;;;;4937749;29;20130;-68
2022/03/09 04:10:24;;;;;;;16.23;12.05;;;9.50;99.90;;;;;;4952355;29;20049;-68
2022/03/09 04:12:52;;;;;;;19.05;12.73;;;9.50;99.90;;;;;;4917872;29;20066;-68
2022/03/09 04:15:19;;;;;;;19.35;12.40;;;9.50;99.90;;;;;;4952003;29;20410;-68
2022/03/09 04:17:48;;;;;;;18.27;12.45;;;9.40;99.90;;;;;;4951677;28;20062;-68
2022/03/09 04:20:15;;;;;;;19.70;11.93;;;9.40;99.90;;;;;;4937417;29;20050;-68
2022/03/09 04:22:42;;;;;;;18.85;12.75;;;9.40;99.90;;;;;;4929712;29;20488;-68
2022/03/09 04:25:09;;;;;;;22.52;14.00;;;9.40;99.90;;;;;;4949340;28;20074;-68
2022/03/09 04:27:36;;;;;;;19.30;13.05;;;9.30;99.90;;;;;;4952466;29;20051;-68
2022/03/09 04:30:07;;;;;;;19.45;13.00;;;9.30;99.90;;;;;;4952453;28;20047;-72
2022/03/09 04:32:34;;;;;;;30.55;14.02;;;9.30;99.90;;;;;;4935422;29;20048;-68
2022/03/09 04:35:02;;;;;;;23.80;14.65;;;9.30;99.90;;;;;;4935619;28;20483;-68
2022/03/09 04:37:33;;;;;;;24.35;13.35;;;9.30;99.90;;;;;;4948319;28;20069;-68
2022/03/09 04:40:01;;;;;;;19.50;13.77;;;9.30;99.90;;;;;;4937817;29;20058;-68
2022/03/09 04:42:28;;;;;;;18.45;13.05;;;9.30;99.90;;;;;;4920847;29;20473;-68
2022/03/09 04:44:55;;;;;;;24.35;14.07;;;9.30;99.90;;;;;;4952404;29;20047;-68
2022/03/09 04:47:22;;;;;;;19.05;15.02;;;9.30;99.90;;;;;;4951320;29;20447;-68
2022/03/09 04:49:51;;;;;;;20.27;14.68;;;9.30;99.90;;;;;;4952691;29;20059;-68
2022/03/09 04:52:20;;;;;;;;;;;9.30;99.90;;;;;;4952621;28;20046;-68
2022/03/09 04:54:47;;;;;;;15.75;11.90;;;9.30;99.90;;;;;;4953453;29;19922;-69
2022/03/09 04:57:14;;;;;;;17.42;12.18;;;9.30;99.90;;;;;;4938586;29;20399;-69
2022/03/09 04:59:41;;;;;;;18.38;12.43;;;9.30;99.90;;;;;;4951652;28;20047;-68
2022/03/09 05:02:09;;;;;;;20.73;12.25;;;9.40;99.90;;;;;;4935495;29;20062;-68
2022/03/09 05:04:37;;;;;;;26.10;13.32;;;9.30;99.90;;;;;;4953671;29;20047;-68
2022/03/09 05:07:04;;;;;;;18.65;10.57;;;9.40;99.90;;;;;;4954173;28;20043;-68
2022/03/09 05:09:31;;;;;;;19.85;11.73;;;9.30;99.90;;;;;;4952539;29;20047;-68
2022/03/09 05:11:59;;;;;;;19.13;11.43;;;9.30;99.90;;;;;;4930493;29;20521;-68
2022/03/09 05:14:25;;;;;;;22.45;12.45;;;9.40;99.90;;;;;;4936188;29;20061;-68
2022/03/09 05:16:53;;;;;;;24.88;11.52;;;9.40;99.90;;;;;;4952239;29;20510;-68
2022/03/09 05:19:20;;;;;;;21.85;11.40;;;9.30;99.90;;;;;;4952874;29;20077;-68
2022/03/09 05:21:47;;;;;;;19.77;10.63;;;9.30;99.90;;;;;;4952180;29;20159;-68
2022/03/09 05:24:34;;;;;;;21.08;9.65;;;9.20;99.90;;;;;;4952296;29;20511;-68
2022/03/09 05:27:01;;;;;;;17.42;9.88;;;9.20;99.90;;;;;;4933551;29;20059;-68
2022/03/09 05:29:28;;;;;;;12.77;8.82;;;9.20;99.90;;;;;;4954861;28;20051;-68
2022/03/09 05:31:55;;;;;;;14.25;8.63;;;9.20;99.90;;;;;;4955453;29;20483;-68
2022/03/09 05:34:25;;;;;;;18.65;9.10;;;9.20;99.90;;;;;;4957226;29;20487;-68
2022/03/09 05:36:52;;;;;;;23.33;9.52;;;9.30;99.90;;;;;;4955336;29;20063;-68
2022/03/09 05:39:19;;;;;;;17.50;8.20;;;9.30;99.90;;;;;;4939109;29;20051;-68
2022/03/09 05:41:47;;;;;;;15.85;9.57;;;9.30;99.90;;;;;;4955563;29;20062;-68
2022/03/09 05:44:14;;;;;;;16.88;8.27;;;9.30;99.90;;;;;;4910149;29;20123;-68
2022/03/09 05:46:42;;;;;;;14.18;7.55;;;9.30;99.90;;;;;;4915388;29;20107;-68
2022/03/09 05:49:09;;;;;;;16.35;7.38;;;9.30;99.90;;;;;;4954845;29;20065;-69
2022/03/09 05:51:36;;;;;;;16.88;7.93;;;9.30;99.90;;;;;;4955219;28;20450;-68
2022/03/09 05:54:03;;;;;;;18.77;7.57;;;9.30;99.90;;;;;;4939332;29;20039;-68
2022/03/09 05:56:32;;;;;;;18.88;7.50;;;9.30;99.90;;;;;;4962320;28;20058;-69
2022/03/09 05:58:59;;;;;;;19.13;7.45;;;9.30;99.90;;;;;;4956177;28;20062;-69
2022/03/09 06:01:26;;;;;;;15.75;7.07;;;9.30;99.90;;;;;;4953525;29;20051;-68
2022/03/09 06:03:53;;;;;;;22.13;7.97;;;9.30;99.90;;;;;;4957066;29;20051;-68
2022/03/09 06:06:20;;;;;;;17.80;7.35;;;9.30;99.90;;;;;;4955312;29;20134;-68
2022/03/09 06:08:47;;;;;;;14.13;7.45;;;9.30;99.90;;;;;;4954489;29;20051;-68
2022/03/09 06:11:14;;;;;;;24.60;8.20;;;9.20;99.90;;;;;;4956200;28;20050;-68
2022/03/09 06:13:41;;;;;;;23.05;7.53;;;9.20;99.90;;;;;;4955054;29;20379;-68
2022/03/09 06:16:08;;;;;;;16.58;7.22;;;9.20;99.90;;;;;;4956383;29;20046;-68
2022/03/09 06:18:36;;;;;;;17.50;6.15;;;9.20;99.90;;;;;;4956406;29;20122;-68
2022/03/09 06:21:03;;;;;;;19.33;7.30;;;9.30;99.90;;;;;;4955031;28;20039;-68
2022/03/09 06:23:30;;;;;;;18.08;7.75;;;9.30;99.90;;;;;;4948998;29;20066;-68
2022/03/09 06:25:57;;;;;;;26.90;8.95;;;9.20;99.90;;;;;;4945366;28;20069;-68
2022/03/09 06:28:24;;;;;;;19.63;8.13;;;9.20;99.90;;;;;;4937379;28;20055;-68
2022/03/09 06:30:54;;;;;;;21.38;7.72;;;9.20;99.90;;;;;;4955805;29;20161;-69
2022/03/09 06:33:21;;;;;;;14.45;7.78;;;9.20;99.90;;;;;;4954094;29;20055;-68
2022/03/09 06:35:50;;;;;;;17.20;6.68;;;9.20;99.90;;;;;;4931069;29;20067;-68
2022/03/09 06:38:17;;;;;;;23.42;9.57;;;9.20;99.90;;;;;;4913634;29;20065;-68
2022/03/09 06:40:44;;;;;;;18.48;8.45;;;9.30;99.90;;;;;;4951517;28;20403;-68
2022/03/09 06:43:12;;;;;;;21.50;8.95;;;9.20;99.90;;;;;;4953547;29;20510;-68
2022/03/09 06:45:39;;;;;;;18.27;8.77;;;9.20;99.90;;;;;;4954775;29;20069;-68
2022/03/09 06:48:07;;;;;;;18.83;7.68;;;9.30;99.90;;;;;;4951062;29;20138;-69
2022/03/09 06:50:34;;;;;;;18.13;7.32;;;9.30;99.90;;;;;;4926596;29;20134;-57
2022/03/09 06:53:02;;;;;;;48.70;33.00;;;9.30;99.90;;;;;;4955384;28;20055;-67
2022/03/09 06:55:29;;;;;;;23.48;11.05;;;9.30;99.90;;;;;;4940867;28;20066;-72
2022/03/09 06:57:56;;;;;;;18.02;7.97;;;9.40;99.90;;;;;;4951767;28;20055;-69
2022/03/09 07:00:22;;;;;;;14.45;7.70;;;9.40;99.90;;;;;;4951593;28;20154;-70
2022/03/09 07:02:49;;;;;;;19.17;7.80;;;9.30;99.90;;;;;;4953115;29;20051;-70
2022/03/09 07:05:17;;;;;;;16.23;8.43;;;9.30;99.90;;;;;;4918186;29;20056;-70
2022/03/09 07:07:44;;;;;;;21.38;8.88;;;9.30;99.90;;;;;;4949431;29;20050;-68
2022/03/09 07:10:13;;;;;;;21.27;8.05;;;9.30;99.90;;;;;;4951266;29;20082;-70
2022/03/09 07:12:44;;;;;;;57.30;34.47;;;9.30;99.90;;;;;;4951656;29;20139;-69
2022/03/09 07:15:12;;;;;;;22.67;10.23;;;9.30;99.90;;;;;;4937099;29;20085;-70
2022/03/09 07:17:40;;;;;;;20.05;9.65;;;9.40;99.90;;;;;;4935560;29;20235;-70
2022/03/09 07:20:08;;;;;;;16.20;7.85;;;9.40;99.90;;;;;;4936244;29;20056;-72
2022/03/09 07:22:38;;;;;;;24.70;10.57;;;9.40;99.90;;;;;;4950784;28;20418;-70
2022/03/09 07:25:06;;;;;;;18.67;7.75;;;9.40;99.90;;;;;;4935801;29;20098;-70
2022/03/09 07:27:33;;;;;;;18.50;8.55;;;9.40;99.90;;;;;;4935679;29;20125;-70
2022/03/09 07:30:00;;;;;;;16.23;7.65;;;9.40;99.90;;;;;;4952926;28;20442;-70
2022/03/09 07:32:27;;;;;;;21.70;9.05;;;9.50;99.90;;;;;;4950859;29;20057;-71
2022/03/09 07:35:18;;;;;;;22.27;8.43;;;9.50;99.90;;;;;;4922201;29;20051;-73
2022/03/09 07:37:53;;;;;;;19.65;7.70;;;9.50;99.90;;;;;;4920061;29;20082;-71
2022/03/09 07:40:21;;;;;;;24.17;7.25;;;9.50;99.90;;;;;;4931119;29;20053;-71
2022/03/09 07:42:48;;;;;;;20.58;7.05;;;9.60;99.90;;;;;;4953118;28;20054;-70
2022/03/09 07:45:16;;;;;;;22.58;8.13;;;9.60;99.90;;;;;;4926343;29;20534;-71
2022/03/09 07:47:43;;;;;;;18.65;8.15;;;9.70;99.90;;;;;;4951042;29;20047;-70
2022/03/09 07:50:10;;;;;;;15.27;6.70;;;9.70;99.90;;;;;;4935670;29;20059;-71
2022/03/09 07:52:41;;;;;;;19.77;6.45;;;9.70;99.90;;;;;;4956462;28;20683;-71
2022/03/09 07:55:10;;;;;;;16.02;7.40;;;9.70;99.90;;;;;;4959491;28;20050;-72
2022/03/09 07:57:45;;;;;;;20.27;7.90;;;9.70;99.90;;;;;;4951585;29;20447;-70
2022/03/09 08:00:17;;;;;;;21.83;6.88;;;9.70;99.90;;;;;;4963093;28;20054;-70
2022/03/09 08:02:44;;;;;;;19.48;6.40;;;9.70;99.90;;;;;;4953843;28;20047;-74
2022/03/09 08:05:11;;;;;;;17.45;7.30;;;9.70;99.90;;;;;;4951393;28;20518;-71
2022/03/09 08:07:43;;;;;;;19.40;6.70;;;9.80;99.90;;;;;;4950408;28;20538;-70
2022/03/09 08:10:11;;;;;;;18.23;6.00;;;9.80;99.90;;;;;;4977891;28;20078;-68
2022/03/09 08:12:38;;;;;;;18.83;5.32;;;9.90;99.90;;;;;;4980714;28;20154;-67
2022/03/09 08:15:08;;;;;;;14.60;5.00;;;9.90;99.90;;;;;;4956807;28;20061;-72
2022/03/09 08:17:35;;;;;;;22.38;6.78;;;10.00;99.90;;;;;;4935924;28;20055;-70
2022/03/09 08:20:03;;;;;;;20.83;8.15;;;10.10;99.90;;;;;;4953284;28;20090;-69
2022/03/09 08:22:30;;;;;;;14.48;5.22;;;10.10;99.90;;;;;;4947462;28;20750;-70
2022/03/09 08:24:57;;;;;;;20.15;6.70;;;10.10;99.90;;;;;;4954978;28;20054;-71
2022/03/09 08:27:24;;;;;;;16.42;5.95;;;10.20;99.90;;;;;;4960677;28;20043;-75
2022/03/09 08:29:51;;;;;;;19.80;5.75;;;10.20;99.90;;;;;;4951549;28;20043;-72
2022/03/09 08:32:22;;;;;;;21.88;5.70;;;10.30;99.90;;;;;;4952445;29;20130;-72
2022/03/09 08:34:50;;;;;;;147.70;99.90;;;10.30;99.90;;;;;;4960605;28;20059;-70
2022/03/09 08:37:17;;;;;;;32.83;17.15;;;10.30;99.90;;;;;;4934068;29;20099;-72
2022/03/09 08:39:47;;;;;;;14.27;7.22;;;10.40;99.90;;;;;;4923317;29;20587;-73
2022/03/09 08:42:18;;;;;;;18.40;6.32;;;10.40;99.90;;;;;;4950749;28;20059;-73
2022/03/09 08:44:45;;;;;;;16.17;4.53;;;10.50;99.90;;;;;;4952642;29;20122;-75
2022/03/09 08:47:12;;;;;;;17.83;5.68;;;10.40;99.90;;;;;;4950726;29;20047;-69
2022/03/09 08:49:42;;;;;;;17.40;6.22;;;10.40;99.90;;;;;;4951203;28;20098;-71
2022/03/09 08:52:11;;;;;;;15.10;6.57;;;10.40;99.90;;;;;;4947355;28;20040;-74
2022/03/09 08:54:40;;;;;;;14.93;4.45;;;10.50;99.90;;;;;;4933144;29;20062;-73
2022/03/09 08:57:07;;;;;;;18.85;5.95;;;10.50;99.90;;;;;;4920457;29;20066;-71
2022/03/09 08:59:34;;;;;;;20.02;5.60;;;10.50;99.90;;;;;;4950384;28;20047;-74
2022/03/09 09:02:01;;;;;;;17.65;5.40;;;10.40;99.90;;;;;;4934622;29;20061;-73
2022/03/09 09:04:29;;;;;;;17.27;4.63;;;10.40;99.90;;;;;;4940001;28;20058;-73
2022/03/09 09:06:56;;;;;;;19.48;6.63;;;10.50;99.90;;;;;;4955657;29;20055;-75
2022/03/09 09:09:23;;;;;;;15.63;5.68;;;10.60;99.90;;;;;;4957401;28;20058;-72
2022/03/09 09:11:51;;;;;;;18.67;6.05;;;10.60;99.90;;;;;;4955926;28;20082;-73
2022/03/09 09:14:18;;;;;;;14.60;4.97;;;10.60;99.90;;;;;;4955922;28;20054;-75
2022/03/09 09:16:47;;;;;;;18.88;5.47;;;10.60;99.90;;;;;;4957728;29;20563;-70
2022/03/09 09:19:15;;;;;;;15.88;4.40;;;10.70;99.90;;;;;;4957513;29;20049;-72
2022/03/09 09:21:47;;;;;;;15.70;5.67;;;10.70;99.90;;;;;;4940339;28;20093;-70
2022/03/09 09:24:15;;;;;;;12.63;5.00;;;10.60;99.90;;;;;;4941077;28;20051;-74
2022/03/09 09:26:43;;;;;;;14.25;4.32;;;10.60;99.90;;;;;;4969063;28;20828;-71
2022/03/09 09:29:22;;;;;;;15.57;4.28;;;10.60;99.90;;;;;;4969209;28;20082;-71
2022/03/09 09:31:49;;;;;;;12.23;5.38;;;10.80;99.90;;;;;;4941588;28;20479;-72
2022/03/09 09:34:16;;;;;;;18.77;5.40;;;11.00;99.90;;;;;;4940763;29;20055;-71
2022/03/09 09:36:46;;;;;;;16.65;4.97;;;11.10;99.90;;;;;;4957894;29;20106;-70
2022/03/09 09:39:14;;;;;;;36.47;25.95;;;11.20;99.90;;;;;;4941672;29;20138;-71
2022/03/09 09:41:46;;;;;;;17.65;6.68;;;11.20;99.90;;;;;;4940588;29;20055;-81
2022/03/09 09:44:13;;;;;;;18.73;6.30;;;11.30;99.90;;;;;;4943709;29;20075;-73
2022/03/09 09:46:41;;;;;;;12.20;4.93;;;11.30;99.90;;;;;;4942773;29;20047;-78
2022/03/09 09:49:09;;;;;;;11.88;5.07;;;11.30;99.90;;;;;;4943566;29;20566;-78
2022/03/09 09:51:39;;;;;;;15.30;5.15;;;11.20;99.90;;;;;;4928562;28;20138;-78
2022/03/09 09:54:07;;;;;;;15.25;4.28;;;11.20;99.90;;;;;;4928940;29;20093;-78
2022/03/09 09:56:36;;;;;;;20.20;6.35;;;11.10;99.90;;;;;;4970285;28;20057;-77
2022/03/09 09:59:03;;;;;;;18.97;6.70;;;11.10;99.90;;;;;;4972425;28;20906;-79
2022/03/09 10:01:30;;;;;;;16.63;4.80;;;11.20;99.90;;;;;;4943792;29;20570;-78
2022/03/09 10:04:00;;;;;;;10.23;3.83;;;11.30;99.90;;;;;;4959178;29;20376;-78
2022/03/09 10:06:27;;;;;;;18.60;4.25;;;11.40;99.90;;;;;;4941101;29;20479;-78
2022/03/09 10:09:14;;;;;;;13.73;4.85;;;11.50;99.90;;;;;;4959168;28;20052;-78
2022/03/09 10:11:51;;;;;;;18.90;5.28;;;11.60;99.70;;;;;;4943791;29;20055;-78
2022/03/09 10:14:48;;;;;;;14.70;4.03;;;11.70;99.90;;;;;;4928256;28;20463;-78
2022/03/09 10:17:34;;;;;;;13.85;4.25;;;11.70;97.90;;;;;;4941209;29;20398;-79
2022/03/09 10:20:10;;;;;;;15.32;4.05;;;11.60;96.90;;;;;;4957841;28;20051;-76
2022/03/09 10:22:41;;;;;;;18.00;4.15;;;11.50;97.30;;;;;;4946783;28;20109;-77
2022/03/09 10:25:23;;;;;;;10.77;4.03;;;11.40;96.90;;;;;;4933938;28;20407;-77
2022/03/09 10:27:55;;;;;;;25.10;10.73;;;11.50;97.80;;;;;;4952963;29;20051;-71
2022/03/09 10:30:33;;;;;;;13.38;5.07;;;11.60;97.10;;;;;;4947635;28;20250;-71
2022/03/09 10:33:04;;;;;;;13.93;6.07;;;11.70;96.90;;;;;;4955365;28;20126;-72
2022/03/09 10:35:31;;;;;;;19.63;6.00;;;11.80;96.10;;;;;;4938789;29;20491;-72
2022/03/09 10:38:06;;;;;;;17.02;4.85;;;11.80;95.60;;;;;;4956092;29;20055;-72
2022/03/09 10:40:43;;;;;;;13.63;4.72;;;11.80;94.80;;;;;;4955304;28;20089;-72
2022/03/09 10:43:13;;;;;;;12.35;4.18;;;11.90;95.10;;;;;;4940058;29;20053;-72
2022/03/09 10:46:08;;;;;;;21.60;4.50;;;11.90;94.90;;;;;;4954717;29;20055;-72
2022/03/09 10:48:52;;;;;;;16.70;4.10;;;11.90;94.60;;;;;;4955852;28;20055;-72
2022/03/09 10:51:35;;;;;;;14.77;4.07;;;11.90;94.50;;;;;;4956096;28;20062;-72
2022/03/09 10:54:21;;;;;;;11.13;3.80;;;11.90;94.20;;;;;;4955657;28;20081;-72
2022/03/09 10:56:49;;;;;;;13.18;3.40;;;12.00;94.50;;;;;;4968164;28;20125;-72
2022/03/09 10:59:20;;;;;;;11.57;4.90;;;12.00;93.70;;;;;;4966582;28;20050;-72
2022/03/09 11:02:07;;;;;;;13.23;4.43;;;12.00;93.00;;;;;;4954798;29;20083;-72
2022/03/09 11:04:35;;;;;;;14.57;4.43;;;12.00;93.40;;;;;;4923457;29;20130;-72
2022/03/09 11:07:03;;;;;;;14.70;4.72;;;11.90;92.90;;;;;;4938983;29;20054;-76
2022/03/09 11:09:30;;;;;;;13.15;4.13;;;11.80;93.60;;;;;;4938855;29;20061;-72
2022/03/09 11:12:00;;;;;;;15.57;4.07;;;11.80;94.20;;;;;;4954377;28;20121;-72
2022/03/09 11:14:27;;;;;;;14.93;4.50;;;11.70;93.90;;;;;;4955538;28;20503;-72
2022/03/09 11:16:57;;;;;;;13.45;3.58;;;11.80;93.80;;;;;;4955725;28;20137;-73
2022/03/09 11:19:25;;;;;;;13.68;5.05;;;11.90;94.20;;;;;;4954612;29;20060;-72
2022/03/09 11:21:52;;;;;;;10.63;4.00;;;11.90;93.80;;;;;;4954625;29;20039;-71
2022/03/09 11:24:20;;;;;;;13.02;3.85;;;12.00;94.20;;;;;;4954541;29;20058;-71
2022/03/09 11:26:51;;;;;;;13.00;4.63;;;12.10;92.80;;;;;;4954427;28;20047;-72
2022/03/09 11:29:31;;;;;;;20.13;5.28;;;12.10;92.70;;;;;;4938604;29;20069;-72
2022/03/09 11:31:58;;;;;;;15.95;4.72;;;12.10;92.80;;;;;;4904633;29;20055;-71
2022/03/09 11:34:37;;;;;;;13.50;4.00;;;12.10;93.20;;;;;;4934840;29;20058;-72
2022/03/09 11:37:17;;;;;;;14.00;4.90;;;12.10;93.30;;;;;;4935124;29;20138;-72
2022/03/09 11:39:46;;;;;;;13.40;3.90;;;12.10;92.70;;;;;;4934776;29;20048;-72
2022/03/09 11:42:22;;;;;;;12.68;4.22;;;12.20;93.10;;;;;;4930305;29;20055;-72
2022/03/09 11:44:55;;;;;;;10.93;4.72;;;12.20;92.40;;;;;;4956262;28;20054;-72
2022/03/09 11:47:22;;;;;;;11.82;4.13;;;12.30;93.50;;;;;;4969484;28;20150;-76
2022/03/09 11:49:49;;;;;;;11.65;4.13;;;12.30;92.40;;;;;;4938563;28;20154;-72
2022/03/09 11:52:17;;;;;;;14.43;4.90;;;12.30;92.10;;;;;;4954611;29;20085;-71
2022/03/09 11:55:01;;;;;;;13.52;3.80;;;12.20;91.80;;;;;;4953957;28;20087;-70
2022/03/09 11:58:04;;;;;;;15.82;3.95;;;12.20;92.00;;;;;;4953028;28;20522;-71
2022/03/09 12:00:31;;;;;;;11.93;4.15;;;12.20;92.50;;;;;;4953092;28;20090;-59
2022/03/09 12:02:58;;;;;;;71.45;48.65;;;12.20;92.60;;;;;;4954692;29;20411;-71
2022/03/09 12:05:29;;;;;;;9.85;5.47;;;12.30;92.40;;;;;;4953947;28;20043;-71
2022/03/09 12:08:00;;;;;;;14.60;3.78;;;12.30;91.40;;;;;;4951643;29;20078;-70
2022/03/09 12:10:50;;;;;;;10.13;4.32;;;12.20;91.00;;;;;;4935492;28;20055;-69
2022/03/09 12:13:44;;;;;;;12.43;5.05;;;12.20;91.20;;;;;;4949576;28;20055;-71
2022/03/09 12:16:15;;;;;;;10.05;4.88;;;12.20;91.70;;;;;;4950941;29;20090;-70
2022/03/09 12:18:43;;;;;;;11.25;3.95;;;12.10;91.90;;;;;;4951621;29;20135;-76
2022/03/09 12:21:16;;;;;;;8.70;2.50;;;12.20;91.70;;;;;;4951617;28;20053;-77
2022/03/09 12:24:03;;;;;;;8.10;2.70;;;12.20;91.40;;;;;;4951148;29;20139;-73
2022/03/09 12:26:39;;;;;;;11.02;3.53;;;12.20;91.60;;;;;;4962124;28;20522;-73
2022/03/09 12:29:34;;;;;;;9.98;3.00;;;12.30;91.00;;;;;;4954437;28;20535;-68
2022/03/09 12:32:02;;;;;;;7.90;3.00;;;12.30;91.00;;;;;;4941036;28;20047;-68
2022/03/09 12:34:35;;;;;;;7.15;2.80;;;12.30;90.80;;;;;;4951952;29;20447;-68
2022/03/09 12:37:04;;;;;;;18.63;3.95;;;12.20;90.60;;;;;;4939878;28;20153;-70
2022/03/09 12:39:32;;;;;;;10.20;2.72;;;12.30;91.00;;;;;;4953937;28;20425;-70
2022/03/09 12:42:00;;;;;;;11.82;2.60;;;12.40;91.10;;;;;;4953674;28;20045;-74
2022/03/09 12:44:31;;;;;;;11.77;3.53;;;12.40;91.00;;;;;;4953303;29;20479;-73
2022/03/09 12:47:03;;;;;;;12.23;4.68;;;12.50;90.90;;;;;;4953188;29;20130;-72
2022/03/09 12:49:38;;;;;;;12.85;3.22;;;12.50;90.80;;;;;;4952535;29;20059;-71